Terminal Aerodrome Forecast
Issued by NWS Hastings, NE

Current Version | Previous Version | Text Only | Print | Product List | Glossary On
Versions: 1 2 3 4 5 6 7 8 9 10 11 12 13 14 15 16 17 18 19
000
FTUS45 KGID 271720
TAFEAR
TAF
KEAR 271720Z 2718/2818 18010KT P6SM SKC
     FM272300 16007KT P6SM SKC
     FM281100 23006KT P6SM FEW250
     FM281500 27012KT P6SM SCT250
      AMD LTD TO CLD VIS AND WIND=

USA.gov is the U.S. government's official web portal to all federal, state and local government web resources and services.